createdAt,value
2019-03-08T00:00:40.191Z,99.90
2019-03-08T00:03:07.756Z,99.90
2019-03-08T00:05:35.633Z,99.90
2019-03-08T00:08:03.250Z,99.90
2019-03-08T00:10:31.226Z,99.90
2019-03-08T00:12:59.075Z,99.90
2019-03-08T00:15:26.698Z,99.90
2019-03-08T00:17:54.827Z,99.50
2019-03-08T00:20:22.779Z,99.70
2019-03-08T00:22:50.342Z,99.80
2019-03-08T00:25:17.933Z,99.70
2019-03-08T00:27:45.912Z,99.80
2019-03-08T00:30:14.284Z,99.90
2019-03-08T00:32:42.660Z,99.90
2019-03-08T00:35:10.640Z,99.90
2019-03-08T00:37:38.803Z,99.90
2019-03-08T00:40:07.079Z,99.90
2019-03-08T00:42:34.722Z,99.70
2019-03-08T00:45:02.371Z,99.90
2019-03-08T00:47:30.018Z,99.20
2019-03-08T00:49:57.574Z,99.10
2019-03-08T00:52:25.659Z,98.70
2019-03-08T00:54:53.586Z,97.50
2019-03-08T00:57:21.529Z,97.00
2019-03-08T00:59:49.746Z,96.30
2019-03-08T01:02:17.698Z,95.70
2019-03-08T01:04:45.787Z,95.10
2019-03-08T01:07:13.550Z,94.80
2019-03-08T01:09:41.434Z,94.70
2019-03-08T01:12:09.378Z,93.90
2019-03-08T01:14:37.382Z,94.00
2019-03-08T01:17:05.002Z,93.10
2019-03-08T01:19:32.572Z,93.70
2019-03-08T01:22:00.687Z,92.90
2019-03-08T01:24:28.419Z,93.00
2019-03-08T01:26:56.698Z,93.00
2019-03-08T01:29:25.260Z,92.90
2019-03-08T01:31:53.509Z,93.10
2019-03-08T01:34:21.106Z,93.10
2019-03-08T01:36:49.059Z,92.90
2019-03-08T01:39:17.248Z,93.40
2019-03-08T01:41:44.869Z,93.00
2019-03-08T01:44:12.718Z,93.60
2019-03-08T01:46:40.646Z,92.90
2019-03-08T01:49:08.220Z,93.50
2019-03-08T01:51:36.056Z,93.40
2019-03-08T01:54:05.062Z,93.70
2019-03-08T01:56:33.015Z,93.40
2019-03-08T01:59:00.602Z,93.20
2019-03-08T02:01:28.295Z,93.70
2019-03-08T02:03:58.034Z,93.50
2019-03-08T02:06:25.854Z,93.90
2019-03-08T02:08:53.483Z,94.00
2019-03-08T02:11:21.387Z,93.80
2019-03-08T02:13:49.259Z,94.00
2019-03-08T02:16:16.863Z,94.00
2019-03-08T02:18:45.006Z,94.20
2019-03-08T02:21:12.834Z,93.90
2019-03-08T02:23:40.422Z,94.10
2019-03-08T02:26:08.371Z,93.80
2019-03-08T02:28:36.842Z,94.70
2019-03-08T02:31:04.857Z,94.80
2019-03-08T02:33:32.779Z,94.60
2019-03-08T02:36:00.351Z,94.80
2019-03-08T04:51:16.608Z,97.60
2019-03-08T04:53:44.195Z,97.50
2019-03-08T04:56:12.121Z,97.20
2019-03-08T04:58:40.327Z,96.70
2019-03-08T05:01:08.974Z,96.50
2019-03-08T05:03:37.163Z,96.90
2019-03-08T05:06:04.798Z,96.40
2019-03-08T05:08:32.679Z,95.10
2019-03-08T05:11:00.890Z,94.90
2019-03-08T05:13:29.115Z,94.50
2019-03-08T05:15:57.291Z,95.00
2019-03-08T05:18:24.906Z,94.70
2019-03-08T05:20:53.181Z,95.10
2019-03-08T05:23:21.107Z,95.50
2019-03-08T05:25:48.706Z,95.30
2019-03-08T05:28:16.354Z,94.30
2019-03-08T05:30:43.924Z,94.00
2019-03-08T05:33:11.969Z,93.60
2019-03-08T05:35:39.871Z,92.90
2019-03-08T05:38:09.477Z,92.50
2019-03-08T05:40:37.352Z,91.80
2019-03-08T05:43:05.319Z,92.10
2019-03-08T05:45:33.191Z,92.30
2019-03-08T05:48:01.117Z,92.80
2019-03-08T05:50:28.696Z,93.40
2019-03-08T05:52:56.978Z,94.10
2019-03-08T05:55:25.231Z,94.90
2019-03-08T05:57:53.211Z,95.50
2019-03-08T06:00:28.739Z,95.40
2019-03-08T06:02:51.015Z,95.80
2019-03-08T06:05:19.233Z,94.80
2019-03-08T06:07:46.808Z,94.80
2019-03-08T06:10:30.361Z,95.00
2019-03-08T06:12:58.159Z,95.70
2019-03-08T06:15:26.053Z,95.20
2019-03-08T06:17:56.359Z,94.60
2019-03-08T06:20:24.306Z,94.90
2019-03-08T06:22:52.198Z,94.50
2019-03-08T06:25:19.832Z,94.30
2019-03-08T06:27:47.451Z,94.50
2019-03-08T06:30:15.330Z,94.30
2019-03-08T06:32:42.980Z,94.30
2019-03-08T06:35:10.907Z,94.40
2019-03-08T06:37:38.900Z,94.50
2019-03-08T06:40:06.667Z,94.30
2019-03-08T06:42:34.584Z,94.10
2019-03-08T06:45:02.250Z,93.70
2019-03-08T06:47:30.257Z,93.70
2019-03-08T06:49:57.894Z,93.60
2019-03-08T06:52:28.333Z,93.30
2019-03-08T06:54:56.195Z,93.20
2019-03-08T06:57:24.749Z,93.20
2019-03-08T07:00:12.267Z,93.50
2019-03-08T07:02:40.465Z,93.50
2019-03-08T07:05:08.378Z,93.60
2019-03-08T07:07:36.307Z,93.50
2019-03-08T07:10:05.893Z,93.30
2019-03-08T07:12:34.420Z,93.60
2019-03-08T07:15:02.672Z,93.70
2019-03-08T07:17:30.506Z,94.20
2019-03-08T07:20:14.196Z,94.00
2019-03-08T07:23:04.014Z,94.40
2019-03-08T07:26:00.286Z,94.30
2019-03-08T07:28:43.244Z,93.70
2019-03-08T07:31:35.254Z,93.00
2019-03-08T07:34:11.335Z,93.00
2019-03-08T07:36:53.114Z,93.10
2019-03-08T07:39:38.639Z,92.10
2019-03-08T07:42:17.722Z,91.60
2019-03-08T07:45:01.719Z,91.60
2019-03-08T07:47:47.014Z,91.70
2019-03-08T07:50:34.161Z,91.60
2019-03-08T07:53:20.161Z,91.00
2019-03-08T07:55:54.304Z,86.00
2019-03-08T07:58:30.235Z,75.60
2019-03-08T08:01:28.700Z,63.40
2019-03-08T08:04:08.578Z,61.80
2019-03-08T08:07:13.588Z,67.80
2019-03-08T08:09:59.223Z,72.40
2019-03-08T08:12:56.446Z,73.50
2019-03-08T08:15:42.866Z,74.90
2019-03-08T08:18:37.355Z,76.00
2019-03-08T08:21:25.550Z,78.10
2019-03-08T08:24:27.753Z,79.10
2019-03-08T08:27:13.449Z,79.10
2019-03-08T08:30:15.658Z,79.10
2019-03-08T08:33:02.806Z,80.70
2019-03-08T08:35:54.377Z,81.50
2019-03-08T08:38:33.065Z,82.50
2019-03-08T08:41:35.087Z,81.90
2019-03-08T08:44:21.159Z,82.90
2019-03-08T08:46:59.475Z,82.30
2019-03-08T08:49:54.281Z,82.50
2019-03-08T08:52:39.458Z,82.20
2019-03-08T08:55:33.482Z,83.00
2019-03-08T08:58:28.910Z,82.90
2019-03-08T09:01:10.075Z,82.00
2019-03-08T09:04:00.356Z,80.10
2019-03-08T09:06:36.499Z,79.40
2019-03-08T09:09:26.690Z,79.00
2019-03-08T09:12:21.135Z,76.90
2019-03-08T09:14:54.468Z,74.60
2019-03-08T09:17:39.950Z,72.70
2019-03-08T09:20:35.230Z,74.30
2019-03-08T09:23:16.778Z,74.00
2019-03-08T09:25:56.334Z,75.60
2019-03-08T09:28:55.508Z,76.40
2019-03-08T09:31:32.933Z,77.30
2019-03-08T09:34:09.756Z,78.40
2019-03-08T09:36:55.110Z,78.20
2019-03-08T09:39:39.102Z,77.50
2019-03-08T09:42:32.724Z,76.70
2019-03-08T09:45:11.451Z,76.60
2019-03-08T09:47:58.519Z,76.70
2019-03-08T09:50:35.362Z,77.10
2019-03-08T09:53:12.036Z,77.00
2019-03-08T09:55:48.386Z,76.50
2019-03-08T09:58:38.162Z,76.60
2019-03-08T10:01:18.654Z,77.50
2019-03-08T10:04:10.867Z,78.20
2019-03-08T10:06:56.910Z,78.80
2019-03-08T10:09:43.127Z,78.60
2019-03-08T10:12:29.342Z,78.60
2019-03-08T10:15:25.852Z,79.20
2019-03-08T10:18:18.483Z,78.30
2019-03-08T10:21:06.171Z,80.20
2019-03-08T10:24:08.096Z,80.00
2019-03-08T10:26:57.193Z,80.90
2019-03-08T10:29:29.294Z,81.10
2019-03-08T10:32:13.408Z,82.00
2019-03-08T10:34:53.137Z,82.90
2019-03-08T10:37:46.256Z,83.30
2019-03-08T10:40:39.274Z,84.70
2019-03-08T10:43:20.802Z,85.00
2019-03-08T10:46:01.223Z,85.70
2019-03-08T10:48:54.414Z,86.30
2019-03-08T10:51:32.686Z,85.60
2019-03-08T10:54:24.707Z,85.00
2019-03-08T10:57:17.933Z,84.90
2019-03-08T11:00:11.030Z,86.00
2019-03-08T11:03:00.058Z,86.30
2019-03-08T11:05:51.083Z,86.30
2019-03-08T11:08:57.449Z,87.10
2019-03-08T11:11:44.733Z,87.90
2019-03-08T11:14:25.210Z,87.80
2019-03-08T11:17:02.912Z,88.20
2019-03-08T11:19:46.038Z,88.40
2019-03-08T11:22:33.254Z,89.30
2019-03-08T11:25:11.342Z,89.40
2019-03-08T11:27:58.688Z,88.50
2019-03-08T11:30:33.942Z,89.10
2019-03-08T11:33:21.313Z,88.30
2019-03-08T11:36:10.966Z,88.10
2019-03-08T11:38:52.350Z,88.00
2019-03-08T11:41:33.623Z,87.60
2019-03-08T11:44:26.964Z,88.40
2019-03-08T11:50:38.099Z,88.20
2019-03-08T11:53:25.223Z,88.70
2019-03-08T11:56:11.058Z,88.10
2019-03-08T11:59:09.699Z,88.10
2019-03-08T12:01:55.862Z,88.20
2019-03-08T12:04:59.488Z,87.70
2019-03-08T12:07:35.878Z,87.60
2019-03-08T12:10:23.085Z,84.90
2019-03-08T12:13:13.202Z,84.60
2019-03-08T12:16:07.410Z,84.20
2019-03-08T12:18:40.235Z,84.00
2019-03-08T12:21:23.723Z,84.60
2019-03-08T12:24:06.655Z,84.40
2019-03-08T12:26:42.354Z,83.20
2019-03-08T12:29:28.338Z,83.80
2019-03-08T12:32:18.494Z,83.20
2019-03-08T12:35:05.932Z,83.40
2019-03-08T12:37:55.774Z,83.20
2019-03-08T12:40:45.298Z,82.50
2019-03-08T12:43:41.217Z,82.50
2019-03-08T12:46:28.651Z,82.00
2019-03-08T12:49:06.018Z,80.80
2019-03-08T12:51:53.520Z,81.30
2019-03-08T12:54:39.248Z,78.80
2019-03-08T12:57:30.072Z,76.60
2019-03-08T13:00:21.646Z,75.40
2019-03-08T13:03:00.458Z,75.80
2019-03-08T13:05:42.966Z,76.70
2019-03-08T13:08:42.202Z,76.80
2019-03-08T13:11:10.421Z,77.00
2019-03-08T13:13:38.463Z,76.40
2019-03-08T13:16:07.310Z,76.80
2019-03-08T13:18:35.196Z,76.40
2019-03-08T13:21:06.022Z,76.70
2019-03-08T13:23:34.495Z,77.20
2019-03-08T13:26:02.910Z,76.70
2019-03-08T13:28:30.510Z,76.10
2019-03-08T13:30:58.711Z,76.50
2019-03-08T13:33:27.710Z,75.30
2019-03-08T13:35:55.650Z,74.00
2019-03-08T13:38:25.042Z,74.30
2019-03-08T13:40:52.890Z,74.30
2019-03-08T13:43:21.818Z,74.20
2019-03-08T13:45:50.462Z,75.30
2019-03-08T13:48:18.400Z,75.70
2019-03-08T13:50:46.836Z,80.50
2019-03-08T13:53:15.835Z,84.20
2019-03-08T13:55:44.411Z,85.90
2019-03-08T13:58:12.697Z,87.50
2019-03-08T14:00:40.780Z,90.50
2019-03-08T14:03:10.480Z,92.40
2019-03-08T14:05:37.848Z,92.50
2019-03-08T14:08:07.402Z,92.30
2019-03-08T14:10:37.008Z,92.90
2019-03-08T14:13:05.454Z,93.50
2019-03-08T14:15:46.850Z,93.30
2019-03-08T14:18:17.225Z,92.80
2019-03-08T14:20:47.859Z,93.40
2019-03-08T14:23:17.874Z,92.60
2019-03-08T14:25:45.718Z,92.90
2019-03-08T14:28:15.188Z,92.30
2019-03-08T14:31:01.581Z,93.40
2019-03-08T14:33:29.828Z,92.90
2019-03-08T14:35:57.442Z,94.10
2019-03-08T14:38:36.126Z,93.80
2019-03-08T14:41:30.651Z,93.20
2019-03-08T14:44:15.523Z,92.40
2019-03-08T14:46:53.026Z,92.00
2019-03-08T14:49:22.878Z,90.80
2019-03-08T14:51:51.786Z,89.50
2019-03-08T14:54:19.375Z,90.40
2019-03-08T14:56:48.010Z,89.50
2019-03-08T14:59:18.018Z,84.30
2019-03-08T15:01:45.947Z,82.00
2019-03-08T15:04:15.321Z,81.80
2019-03-08T15:06:43.566Z,78.60
2019-03-08T15:09:12.069Z,76.80
2019-03-08T15:11:40.194Z,75.30
2019-03-08T15:14:08.410Z,74.90
2019-03-08T15:16:39.126Z,75.40
2019-03-08T15:19:05.391Z,75.60
2019-03-08T15:21:36.953Z,75.00
2019-03-08T15:24:02.759Z,74.10
2019-03-08T15:26:31.363Z,75.60
2019-03-08T15:28:59.220Z,77.40
2019-03-08T15:31:27.470Z,77.40
2019-03-08T15:33:55.026Z,77.00
2019-03-08T15:36:23.785Z,76.40
2019-03-08T15:38:58.239Z,76.80
2019-03-08T15:41:24.990Z,76.80
2019-03-08T15:43:52.754Z,77.50
2019-03-08T15:46:22.477Z,77.80
2019-03-08T15:48:53.176Z,77.20
2019-03-08T15:51:20.845Z,76.10
2019-03-08T15:53:50.678Z,75.90
2019-03-08T15:56:20.498Z,75.70
2019-03-08T15:58:48.015Z,75.30
2019-03-08T16:01:15.996Z,74.30
2019-03-08T16:03:43.830Z,75.20
2019-03-08T16:06:11.450Z,76.40
2019-03-08T16:08:39.696Z,77.80
2019-03-08T16:11:08.282Z,76.60
2019-03-08T16:13:36.509Z,76.20
2019-03-08T16:16:04.072Z,76.80
2019-03-08T16:18:32.028Z,78.00
2019-03-08T16:21:00.793Z,77.80
2019-03-08T16:23:29.331Z,77.70
2019-03-08T16:25:57.793Z,78.20
2019-03-08T16:28:25.683Z,77.20
2019-03-08T16:31:00.279Z,77.70
2019-03-08T16:33:36.193Z,78.20
2019-03-08T16:36:26.169Z,77.60
2019-03-08T16:39:11.723Z,78.30
2019-03-08T16:42:04.910Z,77.60
2019-03-08T16:44:41.634Z,77.70
2019-03-08T16:47:21.472Z,78.20
2019-03-08T16:50:11.046Z,78.10
2019-03-08T16:52:51.341Z,75.00
2019-03-08T16:55:37.362Z,75.90
2019-03-08T16:58:22.807Z,76.50
2019-03-08T17:01:15.480Z,76.20
2019-03-08T17:04:01.222Z,76.60
2019-03-08T17:06:36.326Z,77.00
2019-03-08T17:09:15.214Z,76.30
2019-03-08T17:11:52.606Z,77.30
2019-03-08T17:14:29.334Z,77.40
2019-03-08T17:17:26.133Z,73.20
2019-03-08T17:20:11.406Z,71.00
2019-03-08T17:23:04.162Z,69.70
2019-03-08T17:26:09.333Z,69.80
2019-03-08T17:28:43.225Z,68.50
2019-03-08T17:31:24.007Z,68.40
2019-03-08T17:34:26.151Z,68.80
2019-03-08T17:37:12.492Z,68.40
2019-03-08T17:39:53.754Z,67.40
2019-03-08T17:42:40.852Z,66.70
2019-03-08T17:45:17.550Z,66.70
2019-03-08T17:48:04.922Z,66.30
2019-03-08T17:50:40.217Z,66.50
2019-03-08T17:53:29.907Z,65.50
2019-03-08T17:56:15.702Z,64.50
2019-03-08T17:59:03.367Z,64.50
2019-03-08T18:02:10.354Z,64.70
2019-03-08T18:04:46.768Z,64.10
2019-03-08T18:07:33.908Z,63.90
2019-03-08T18:10:19.790Z,64.20
2019-03-08T18:13:09.756Z,64.90
2019-03-08T18:15:56.837Z,64.00
2019-03-08T18:18:44.515Z,64.20
2019-03-08T18:21:37.801Z,63.20
2019-03-08T18:24:23.658Z,63.40
2019-03-08T18:27:19.430Z,63.70
2019-03-08T18:30:02.268Z,64.30
2019-03-08T18:32:46.640Z,64.40
2019-03-08T18:35:49.523Z,62.90
2019-03-08T18:38:39.874Z,63.50
2019-03-08T18:41:30.204Z,64.90
2019-03-08T18:44:20.364Z,66.70
2019-03-08T18:47:13.731Z,67.60
2019-03-08T18:50:00.759Z,68.80
2019-03-08T18:52:51.204Z,69.60
2019-03-08T18:55:40.959Z,69.30
2019-03-08T18:58:28.330Z,68.80
2019-03-08T19:01:16.566Z,68.00
2019-03-08T19:04:19.146Z,68.40
2019-03-08T19:06:54.542Z,69.30
2019-03-08T19:09:40.470Z,70.80
2019-03-08T19:12:33.827Z,71.60
2019-03-08T19:15:23.049Z,73.60
2019-03-08T19:18:06.778Z,74.40
2019-03-08T19:20:51.223Z,74.80
2019-03-08T19:23:36.999Z,75.50
2019-03-08T19:26:24.643Z,77.60
2019-03-08T19:29:08.639Z,77.90
2019-03-08T19:31:45.206Z,77.50
2019-03-08T19:34:32.531Z,76.60
2019-03-08T19:37:37.532Z,79.30
2019-03-08T19:40:28.048Z,79.30
2019-03-08T19:43:23.959Z,81.20
2019-03-08T19:46:11.300Z,80.90
2019-03-08T19:48:53.845Z,81.80
2019-03-08T19:51:41.430Z,82.00
2019-03-08T19:54:28.566Z,82.60
2019-03-08T19:57:26.406Z,82.50
2019-03-08T20:00:22.032Z,82.90
2019-03-08T20:03:06.402Z,83.00
2019-03-08T20:05:48.086Z,82.50
2019-03-08T20:08:35.465Z,81.90
2019-03-08T20:11:37.249Z,83.50
2019-03-08T20:14:21.256Z,83.30
2019-03-08T20:17:12.891Z,83.80
2019-03-08T20:20:06.536Z,83.10
2019-03-08T20:22:58.635Z,82.70
2019-03-08T20:25:36.574Z,82.30
2019-03-08T20:28:11.105Z,82.40
2019-03-08T20:30:49.697Z,82.50
2019-03-08T20:33:49.027Z,82.60
2019-03-08T20:36:41.828Z,80.90
2019-03-08T20:39:18.064Z,81.80
2019-03-08T20:42:08.091Z,82.50
2019-03-08T20:44:40.035Z,83.30
2019-03-08T20:47:11.081Z,84.00
2019-03-08T20:49:39.034Z,84.50
2019-03-08T20:52:06.770Z,84.20
2019-03-08T20:54:34.874Z,85.50
2019-03-08T20:57:02.746Z,85.30
2019-03-08T20:59:30.411Z,84.80
2019-03-08T21:01:58.590Z,84.20
2019-03-08T21:04:26.340Z,84.80
2019-03-08T21:06:53.934Z,83.10
2019-03-08T21:09:21.747Z,82.60
2019-03-08T21:11:49.335Z,83.50
2019-03-08T21:14:16.867Z,81.80
2019-03-08T21:16:44.782Z,82.60
2019-03-08T21:19:12.537Z,82.10
2019-03-08T21:21:40.138Z,82.40
2019-03-08T21:24:08.300Z,82.10
2019-03-08T21:26:35.902Z,82.80
2019-03-08T21:29:03.582Z,82.70
2019-03-08T21:31:31.551Z,83.60
2019-03-08T21:34:00.039Z,83.70
2019-03-08T21:36:28.277Z,83.50
2019-03-08T21:38:56.144Z,83.30
2019-03-08T21:41:23.880Z,83.70
2019-03-08T21:43:51.543Z,82.90
2019-03-08T21:46:19.132Z,83.10
2019-03-08T21:48:47.312Z,82.60
2019-03-08T21:51:16.695Z,82.50
2019-03-08T21:53:44.983Z,82.50
2019-03-08T21:56:14.082Z,82.60
2019-03-08T21:58:44.991Z,82.60
2019-03-08T22:01:13.299Z,83.20
2019-03-08T22:03:42.535Z,82.60
2019-03-08T22:06:10.518Z,82.50
2019-03-08T22:08:43.743Z,81.90
2019-03-08T22:11:16.268Z,81.70
2019-03-08T22:13:44.202Z,80.90
2019-03-08T22:16:12.106Z,81.40
2019-03-08T22:18:39.844Z,82.30
2019-03-08T22:21:07.765Z,82.60
2019-03-08T22:23:35.437Z,83.00
2019-03-08T22:26:03.081Z,82.70
2019-03-08T22:28:31.224Z,83.00
2019-03-08T22:30:58.853Z,82.70
2019-03-08T22:33:26.443Z,83.30
2019-03-08T22:35:54.129Z,83.60
2019-03-08T22:38:21.691Z,84.20
2019-03-08T22:40:49.178Z,84.70
2019-03-08T22:43:16.989Z,85.50
2019-03-08T22:45:45.189Z,85.50
2019-03-08T22:48:13.024Z,85.30
2019-03-08T22:50:41.239Z,85.10
2019-03-08T22:53:09.130Z,84.90
2019-03-08T22:55:37.006Z,84.80
2019-03-08T22:58:04.606Z,84.60
2019-03-08T23:00:58.783Z,85.80
2019-03-08T23:03:26.646Z,86.00
2019-03-08T23:05:54.503Z,85.30
2019-03-08T23:08:22.198Z,85.10
2019-03-08T23:10:49.987Z,85.50
2019-03-08T23:13:17.891Z,85.90
2019-03-08T23:15:45.491Z,86.80
2019-03-08T23:18:13.691Z,86.70
2019-03-08T23:20:41.668Z,86.20
2019-03-08T23:23:09.282Z,86.20
2019-03-08T23:25:37.549Z,85.60
2019-03-08T23:28:25.366Z,85.90
2019-03-08T23:30:55.634Z,85.80
2019-03-08T23:33:24.045Z,86.00
2019-03-08T23:35:51.620Z,86.00
2019-03-08T23:38:19.187Z,86.80
2019-03-08T23:40:46.943Z,86.10
2019-03-08T23:43:15.513Z,86.50
2019-03-08T23:45:43.050Z,86.30
2019-03-08T23:48:10.924Z,86.20
2019-03-08T23:50:38.438Z,87.00
2019-03-08T23:53:06.039Z,86.60
2019-03-08T23:55:34.101Z,86.40
2019-03-08T23:58:01.732Z,86.20
